sensor_id;sensor_type;location;lat;lon;timestamp;pressure;altitude;pressure_sealevel;temperature;humidity
20455;BME280;10386;54.314;10.022;2022-08-04T00:00:52;101007.69;;;20.20;100.00
20455;BME280;10386;54.314;10.022;2022-08-04T00:03:27;101001.69;;;20.33;100.00
20455;BME280;10386;54.314;10.022;2022-08-04T00:06:18;101008.97;;;20.42;100.00
20455;BME280;10386;54.314;10.022;2022-08-04T00:08:54;101006.09;;;20.59;100.00
20455;BME280;10386;54.314;10.022;2022-08-04T00:11:25;101004.53;;;20.49;100.00
20455;BME280;10386;54.314;10.022;2022-08-04T00:14:05;101001.91;;;20.47;100.00
20455;BME280;10386;54.314;10.022;2022-08-04T00:16:40;100989.34;;;20.53;100.00
20455;BME280;10386;54.314;10.022;2022-08-04T00:19:43;100985.91;;;20.59;100.00
20455;BME280;10386;54.314;10.022;2022-08-04T00:22:12;100991.59;;;20.57;100.00
20455;BME280;10386;54.314;10.022;2022-08-04T00:24:40;100990.06;;;20.55;100.00
20455;BME280;10386;54.314;10.022;2022-08-04T00:27:08;100976.06;;;20.56;100.00
20455;BME280;10386;54.314;10.022;2022-08-04T00:29:37;100985.72;;;20.60;100.00
20455;BME280;10386;54.314;10.022;2022-08-04T00:32:06;100977.44;;;20.52;100.00
20455;BME280;10386;54.314;10.022;2022-08-04T00:34:35;100975.72;;;20.51;100.00
20455;BME280;10386;54.314;10.022;2022-08-04T00:37:04;100960.91;;;20.68;100.00
20455;BME280;10386;54.314;10.022;2022-08-04T00:39:33;100965.91;;;20.57;100.00
20455;BME280;10386;54.314;10.022;2022-08-04T00:45:05;100962.13;;;20.58;100.00
20455;BME280;10386;54.314;10.022;2022-08-04T00:53:16;100940.41;;;20.55;100.00
20455;BME280;10386;54.314;10.022;2022-08-04T00:56:02;100943.50;;;20.52;100.00
20455;BME280;10386;54.314;10.022;2022-08-04T01:07:48;100919.16;;;19.98;100.00
20455;BME280;10386;54.314;10.022;2022-08-04T01:10:02;100906.53;;;19.87;100.00
20455;BME280;10386;54.314;10.022;2022-08-04T01:15:25;100885.09;;;19.65;100.00
20455;BME280;10386;54.314;10.022;2022-08-04T01:26:49;100821.50;;;19.51;100.00
20455;BME280;10386;54.314;10.022;2022-08-04T01:29:26;100831.56;;;19.27;100.00
20455;BME280;10386;54.314;10.022;2022-08-04T01:32:31;100813.81;;;19.21;100.00
20455;BME280;10386;54.314;10.022;2022-08-04T01:35:10;100819.00;;;19.07;100.00
20455;BME280;10386;54.314;10.022;2022-08-04T01:37:58;100800.75;;;19.23;100.00
20455;BME280;10386;54.314;10.022;2022-08-04T01:40:44;100781.09;;;19.18;100.00
20455;BME280;10386;54.314;10.022;2022-08-04T01:43:13;100789.22;;;19.20;100.00
20455;BME280;10386;54.314;10.022;2022-08-04T01:45:41;100775.66;;;19.34;100.00
20455;BME280;10386;54.314;10.022;2022-08-04T01:48:13;100767.09;;;19.45;100.00
20455;BME280;10386;54.314;10.022;2022-08-04T01:50:42;100759.84;;;19.44;100.00
20455;BME280;10386;54.314;10.022;2022-08-04T01:53:11;100747.66;;;19.47;100.00
20455;BME280;10386;54.314;10.022;2022-08-04T01:55:39;100757.47;;;19.49;100.00
20455;BME280;10386;54.314;10.022;2022-08-04T01:58:23;100757.78;;;19.38;100.00
20455;BME280;10386;54.314;10.022;2022-08-04T02:00:58;100768.94;;;19.29;100.00
20455;BME280;10386;54.314;10.022;2022-08-04T02:03:37;100765.66;;;19.25;100.00
20455;BME280;10386;54.314;10.022;2022-08-04T02:06:44;100761.88;;;19.26;100.00
20455;BME280;10386;54.314;10.022;2022-08-04T02:09:21;100756.69;;;19.23;100.00
20455;BME280;10386;54.314;10.022;2022-08-04T02:15:31;100749.28;;;19.16;100.00
20455;BME280;10386;54.314;10.022;2022-08-04T02:18:10;100752.81;;;19.08;100.00
20455;BME280;10386;54.314;10.022;2022-08-04T02:20:45;100754.53;;;19.09;100.00
20455;BME280;10386;54.314;10.022;2022-08-04T02:23:15;100745.59;;;19.07;100.00
20455;BME280;10386;54.314;10.022;2022-08-04T02:25:50;100731.81;;;19.07;100.00
20455;BME280;10386;54.314;10.022;2022-08-04T02:29:16;100737.69;;;19.12;100.00
20455;BME280;10386;54.314;10.022;2022-08-04T02:31:47;100729.41;;;19.04;100.00
20455;BME280;10386;54.314;10.022;2022-08-04T02:37:03;100740.84;;;18.92;100.00
20455;BME280;10386;54.314;10.022;2022-08-04T02:39:33;100734.84;;;18.88;100.00
20455;BME280;10386;54.314;10.022;2022-08-04T02:42:15;100726.97;;;19.01;100.00
20455;BME280;10386;54.314;10.022;2022-08-04T02:44:50;100725.78;;;19.04;100.00
20455;BME280;10386;54.314;10.022;2022-08-04T02:47:20;100724.41;;;19.08;100.00
20455;BME280;10386;54.314;10.022;2022-08-04T02:49:52;100722.19;;;19.03;100.00
20455;BME280;10386;54.314;10.022;2022-08-04T02:52:23;100728.66;;;18.94;100.00
20455;BME280;10386;54.314;10.022;2022-08-04T02:54:55;100728.66;;;18.94;100.00
20455;BME280;10386;54.314;10.022;2022-08-04T02:57:26;100734.31;;;18.93;100.00
20455;BME280;10386;54.314;10.022;2022-08-04T03:00:08;100729.03;;;18.99;100.00
20455;BME280;10386;54.314;10.022;2022-08-04T03:02:53;100727.75;;;18.86;100.00
20455;BME280;10386;54.314;10.022;2022-08-04T03:05:27;100727.53;;;18.71;100.00
20455;BME280;10386;54.314;10.022;2022-08-04T03:11:39;100726.22;;;18.58;100.00
20455;BME280;10386;54.314;10.022;2022-08-04T03:15:19;100722.94;;;18.54;100.00
20455;BME280;10386;54.314;10.022;2022-08-04T03:32:18;100730.81;;;18.49;100.00
20455;BME280;10386;54.314;10.022;2022-08-04T03:35:09;100735.44;;;18.49;100.00
20455;BME280;10386;54.314;10.022;2022-08-04T03:46:38;100737.38;;;18.56;100.00
20455;BME280;10386;54.314;10.022;2022-08-04T03:55:29;100751.34;;;18.63;100.00
20455;BME280;10386;54.314;10.022;2022-08-04T03:58:30;100749.44;;;18.63;100.00
20455;BME280;10386;54.314;10.022;2022-08-04T04:24:27;100742.97;;;19.31;100.00
20455;BME280;10386;54.314;10.022;2022-08-04T04:27:15;100745.41;;;19.42;100.00
20455;BME280;10386;54.314;10.022;2022-08-04T04:51:07;100733.59;;;20.93;100.00
20455;BME280;10386;54.314;10.022;2022-08-04T04:59:06;100728.91;;;21.40;100.00
20455;BME280;10386;54.314;10.022;2022-08-04T05:07:43;100751.91;;;21.71;100.00
20455;BME280;10386;54.314;10.022;2022-08-04T05:13:41;100766.94;;;21.99;100.00
20455;BME280;10386;54.314;10.022;2022-08-04T05:22:30;100795.66;;;22.42;100.00
20455;BME280;10386;54.314;10.022;2022-08-04T05:25:20;100825.25;;;22.42;100.00
20455;BME280;10386;54.314;10.022;2022-08-04T05:28:21;100840.06;;;22.49;100.00
20455;BME280;10386;54.314;10.022;2022-08-04T05:30:58;100851.56;;;22.60;100.00
20455;BME280;10386;54.314;10.022;2022-08-04T05:33:31;100878.06;;;22.55;100.00
20455;BME280;10386;54.314;10.022;2022-08-04T05:36:02;100880.69;;;22.71;100.00
20455;BME280;10386;54.314;10.022;2022-08-04T05:38:53;100889.50;;;22.74;100.00
20455;BME280;10386;54.314;10.022;2022-08-04T05:41:27;100898.97;;;22.80;100.00
20455;BME280;10386;54.314;10.022;2022-08-04T05:44:12;100911.31;;;22.92;100.00
20455;BME280;10386;54.314;10.022;2022-08-04T05:46:42;100928.19;;;23.05;100.00
20455;BME280;10386;54.314;10.022;2022-08-04T05:49:21;100944.69;;;23.21;100.00
20455;BME280;10386;54.314;10.022;2022-08-04T05:51:48;100958.47;;;23.29;100.00
20455;BME280;10386;54.314;10.022;2022-08-04T05:54:16;100982.47;;;23.36;100.00
20455;BME280;10386;54.314;10.022;2022-08-04T05:56:44;100989.31;;;23.48;100.00
20455;BME280;10386;54.314;10.022;2022-08-04T05:59:12;101007.47;;;23.51;100.00
20455;BME280;10386;54.314;10.022;2022-08-04T06:01:41;101032.03;;;23.54;100.00
20455;BME280;10386;54.314;10.022;2022-08-04T06:04:32;101050.13;;;23.64;100.00
20455;BME280;10386;54.314;10.022;2022-08-04T06:07:00;101063.16;;;23.78;100.00
20455;BME280;10386;54.314;10.022;2022-08-04T06:09:28;101078.75;;;24.01;100.00
20455;BME280;10386;54.314;10.022;2022-08-04T06:12:02;101103.25;;;24.12;100.00
20455;BME280;10386;54.314;10.022;2022-08-04T06:14:41;101108.41;;;24.15;100.00
20455;BME280;10386;54.314;10.022;2022-08-04T06:17:12;101125.66;;;24.25;100.00
20455;BME280;10386;54.314;10.022;2022-08-04T06:20:01;101138.22;;;24.36;100.00
20455;BME280;10386;54.314;10.022;2022-08-04T06:22:59;101156.13;;;24.48;100.00
20455;BME280;10386;54.314;10.022;2022-08-04T06:25:43;101168.53;;;24.60;100.00
20455;BME280;10386;54.314;10.022;2022-08-04T06:31:03;101191.28;;;24.99;100.00
20455;BME280;10386;54.314;10.022;2022-08-04T06:33:54;101200.00;;;26.37;100.00
20455;BME280;10386;54.314;10.022;2022-08-04T06:36:22;101224.59;;;28.29;100.00
20455;BME280;10386;54.314;10.022;2022-08-04T06:38:51;101216.34;;;29.18;100.00
20455;BME280;10386;54.314;10.022;2022-08-04T06:45:39;101153.75;;;30.74;100.00
20455;BME280;10386;54.314;10.022;2022-08-04T06:48:11;101121.34;;;30.53;100.00
20455;BME280;10386;54.314;10.022;2022-08-04T06:50:40;101133.38;;;31.21;100.00
20455;BME280;10386;54.314;10.022;2022-08-04T06:53:27;101084.94;;;31.07;100.00
20455;BME280;10386;54.314;10.022;2022-08-04T06:55:56;101091.81;;;30.75;100.00
20455;BME280;10386;54.314;10.022;2022-08-04T06:58:26;101087.84;;;30.65;100.00
20455;BME280;10386;54.314;10.022;2022-08-04T07:00:53;101100.41;;;30.62;100.00
20455;BME280;10386;54.314;10.022;2022-08-04T07:03:24;101099.63;;;30.73;100.00
20455;BME280;10386;54.314;10.022;2022-08-04T07:05:51;101109.03;;;30.12;100.00
20455;BME280;10386;54.314;10.022;2022-08-04T07:08:19;101117.25;;;30.07;100.00
20455;BME280;10386;54.314;10.022;2022-08-04T07:10:48;101124.78;;;29.76;100.00
20455;BME280;10386;54.314;10.022;2022-08-04T07:13:17;101138.97;;;30.60;100.00
20455;BME280;10386;54.314;10.022;2022-08-04T07:15:45;101101.63;;;31.02;100.00
20455;BME280;10386;54.314;10.022;2022-08-04T07:18:17;101088.53;;;30.60;100.00
20455;BME280;10386;54.314;10.022;2022-08-04T07:20:45;101093.75;;;30.32;100.00
20455;BME280;10386;54.314;10.022;2022-08-04T07:23:13;101125.03;;;29.30;100.00
20455;BME280;10386;54.314;10.022;2022-08-04T07:25:49;101156.84;;;28.92;100.00
20455;BME280;10386;54.314;10.022;2022-08-04T07:28:38;101185.25;;;28.69;100.00
20455;BME280;10386;54.314;10.022;2022-08-04T07:31:12;101207.81;;;28.35;100.00
20455;BME280;10386;54.314;10.022;2022-08-04T07:34:01;101210.38;;;28.18;100.00
20455;BME280;10386;54.314;10.022;2022-08-04T07:36:49;101227.78;;;28.26;100.00
20455;BME280;10386;54.314;10.022;2022-08-04T07:39:22;101213.44;;;28.29;100.00
20455;BME280;10386;54.314;10.022;2022-08-04T07:41:56;101217.28;;;28.41;100.00
20455;BME280;10386;54.314;10.022;2022-08-04T07:44:24;101200.97;;;28.38;100.00
20455;BME280;10386;54.314;10.022;2022-08-04T07:46:52;101204.41;;;28.40;100.00
20455;BME280;10386;54.314;10.022;2022-08-04T07:49:19;101209.13;;;28.59;100.00
20455;BME280;10386;54.314;10.022;2022-08-04T07:52:07;101203.94;;;28.88;100.00
20455;BME280;10386;54.314;10.022;2022-08-04T07:54:37;101175.13;;;28.88;100.00
20455;BME280;10386;54.314;10.022;2022-08-04T07:57:04;101185.84;;;29.04;100.00
20455;BME280;10386;54.314;10.022;2022-08-04T07:59:32;101149.13;;;29.38;100.00
20455;BME280;10386;54.314;10.022;2022-08-04T08:02:00;101125.47;;;29.27;100.00
20455;BME280;10386;54.314;10.022;2022-08-04T08:04:28;101093.09;;;29.51;100.00
20455;BME280;10386;54.314;10.022;2022-08-04T08:06:56;101077.56;;;29.55;100.00
20455;BME280;10386;54.314;10.022;2022-08-04T08:09:23;101103.06;;;29.78;100.00
20455;BME280;10386;54.314;10.022;2022-08-04T08:11:52;101061.84;;;29.54;100.00
20455;BME280;10386;54.314;10.022;2022-08-04T08:14:40;101072.00;;;29.79;100.00
20455;BME280;10386;54.314;10.022;2022-08-04T08:17:08;101062.28;;;30.12;100.00
20455;BME280;10386;54.314;10.022;2022-08-04T08:19:35;101022.59;;;30.33;100.00
20455;BME280;10386;54.314;10.022;2022-08-04T08:22:03;101000.97;;;30.40;100.00
20455;BME280;10386;54.314;10.022;2022-08-04T08:24:33;101013.91;;;30.77;100.00
20455;BME280;10386;54.314;10.022;2022-08-04T08:27:01;100977.66;;;30.64;100.00
20455;BME280;10386;54.314;10.022;2022-08-04T08:29:34;100953.13;;;30.89;100.00
20455;BME280;10386;54.314;10.022;2022-08-04T08:32:02;100963.91;;;30.74;100.00
20455;BME280;10386;54.314;10.022;2022-08-04T08:34:35;101022.31;;;30.95;100.00
20455;BME280;10386;54.314;10.022;2022-08-04T08:40:07;101008.47;;;31.30;100.00
20455;BME280;10386;54.314;10.022;2022-08-04T08:46:30;101007.50;;;31.65;100.00
20455;BME280;10386;54.314;10.022;2022-08-04T08:55:48;100932.13;;;32.08;100.00
20455;BME280;10386;54.314;10.022;2022-08-04T09:01:11;100934.09;;;32.19;100.00
20455;BME280;10386;54.314;10.022;2022-08-04T09:03:57;100958.50;;;32.41;100.00
20455;BME280;10386;54.314;10.022;2022-08-04T09:07:09;100931.38;;;32.47;100.00
20455;BME280;10386;54.314;10.022;2022-08-04T09:15:02;100930.38;;;32.53;98.95
20455;BME280;10386;54.314;10.022;2022-08-04T09:17:42;100909.94;;;32.69;97.14
20455;BME280;10386;54.314;10.022;2022-08-04T09:20:53;100918.34;;;32.96;96.59
20455;BME280;10386;54.314;10.022;2022-08-04T09:23:22;100900.97;;;32.99;94.76
20455;BME280;10386;54.314;10.022;2022-08-04T09:26:33;100905.28;;;32.90;93.23
20455;BME280;10386;54.314;10.022;2022-08-04T09:29:07;100918.72;;;32.61;92.01
20455;BME280;10386;54.314;10.022;2022-08-04T09:31:54;100954.78;;;32.75;92.92
20455;BME280;10386;54.314;10.022;2022-08-04T09:37:06;100953.44;;;32.78;92.40
20455;BME280;10386;54.314;10.022;2022-08-04T09:39:48;100964.28;;;32.85;92.43
20455;BME280;10386;54.314;10.022;2022-08-04T09:42:40;100984.19;;;32.95;93.38
20455;BME280;10386;54.314;10.022;2022-08-04T09:45:33;100935.84;;;32.98;90.88
20455;BME280;10386;54.314;10.022;2022-08-04T09:54:32;100948.97;;;32.54;89.52
20455;BME280;10386;54.314;10.022;2022-08-04T09:57:44;100935.56;;;32.72;87.25
20455;BME280;10386;54.314;10.022;2022-08-04T10:00:18;100935.22;;;32.96;86.36
20455;BME280;10386;54.314;10.022;2022-08-04T10:03:09;100925.53;;;33.32;84.96
20455;BME280;10386;54.314;10.022;2022-08-04T10:11:45;100935.44;;;33.51;83.31
20455;BME280;10386;54.314;10.022;2022-08-04T10:17:30;101019.03;;;33.17;88.51
20455;BME280;10386;54.314;10.022;2022-08-04T10:20:19;101030.97;;;33.52;88.67
20455;BME280;10386;54.314;10.022;2022-08-04T10:29:02;100965.28;;;33.07;84.69
20455;BME280;10386;54.314;10.022;2022-08-04T10:31:36;100970.50;;;33.15;84.93
20455;BME280;10386;54.314;10.022;2022-08-04T10:34:19;100911.00;;;32.95;81.58
20455;BME280;10386;54.314;10.022;2022-08-04T10:37:22;100923.34;;;32.78;82.64
20455;BME280;10386;54.314;10.022;2022-08-04T10:40:21;100956.59;;;33.09;83.47
20455;BME280;10386;54.314;10.022;2022-08-04T10:45:59;100977.16;;;33.37;84.38
20455;BME280;10386;54.314;10.022;2022-08-04T10:48:42;100966.75;;;33.21;84.30
20455;BME280;10386;54.314;10.022;2022-08-04T10:51:37;101011.47;;;33.34;86.95
20455;BME280;10386;54.314;10.022;2022-08-04T10:56:56;101016.66;;;33.14;88.21
20455;BME280;10386;54.314;10.022;2022-08-04T10:59:42;100991.16;;;33.49;85.84
20455;BME280;10386;54.314;10.022;2022-08-04T11:05:04;100923.47;;;34.10;81.37
20455;BME280;10386;54.314;10.022;2022-08-04T11:07:38;100930.31;;;33.97;81.68
20455;BME280;10386;54.314;10.022;2022-08-04T11:10:08;100916.63;;;34.22;79.80
20455;BME280;10386;54.314;10.022;2022-08-04T11:12:37;100946.94;;;34.53;80.78
20455;BME280;10386;54.314;10.022;2022-08-04T11:15:06;100910.66;;;34.40;78.86
20455;BME280;10386;54.314;10.022;2022-08-04T11:17:40;100873.41;;;34.38;76.37
20455;BME280;10386;54.314;10.022;2022-08-04T11:23:10;100805.34;;;34.08;70.42
20455;BME280;10386;54.314;10.022;2022-08-04T11:25:52;100787.63;;;33.53;69.57
20455;BME280;10386;54.314;10.022;2022-08-04T11:31:31;100802.22;;;33.88;66.96
20455;BME280;10386;54.314;10.022;2022-08-04T11:37:04;100793.19;;;33.86;64.91
20455;BME280;10386;54.314;10.022;2022-08-04T11:42:28;100809.66;;;34.37;64.82
20455;BME280;10386;54.314;10.022;2022-08-04T11:45:14;100823.66;;;34.75;64.29
20455;BME280;10386;54.314;10.022;2022-08-04T11:47:49;100795.72;;;34.73;61.84
20455;BME280;10386;54.314;10.022;2022-08-04T11:50:33;100782.63;;;33.98;61.25
20455;BME280;10386;54.314;10.022;2022-08-04T11:53:12;100796.50;;;34.21;60.69
20455;BME280;10386;54.314;10.022;2022-08-04T11:55:44;100774.25;;;34.25;59.16
20455;BME280;10386;54.314;10.022;2022-08-04T11:58:35;100806.16;;;33.87;61.45
20455;BME280;10386;54.314;10.022;2022-08-04T12:01:09;100799.31;;;33.62;61.02
20455;BME280;10386;54.314;10.022;2022-08-04T12:04:01;100877.31;;;33.61;64.71
20455;BME280;10386;54.314;10.022;2022-08-04T12:06:51;100846.09;;;34.01;62.63
20455;BME280;10386;54.314;10.022;2022-08-04T12:12:51;100890.31;;;34.81;63.12
20455;BME280;10386;54.314;10.022;2022-08-04T12:15:26;100891.59;;;34.68;64.07
20455;BME280;10386;54.314;10.022;2022-08-04T12:18:20;100918.28;;;34.18;67.10
20455;BME280;10386;54.314;10.022;2022-08-04T12:21:02;100925.19;;;33.61;68.70
20455;BME280;10386;54.314;10.022;2022-08-04T12:23:38;100978.84;;;33.83;72.26
20455;BME280;10386;54.314;10.022;2022-08-04T12:26:22;100974.53;;;34.67;70.92
20455;BME280;10386;54.314;10.022;2022-08-04T12:28:57;100958.03;;;34.59;71.50
20455;BME280;10386;54.314;10.022;2022-08-04T12:31:52;100920.06;;;34.45;69.74
20455;BME280;10386;54.314;10.022;2022-08-04T12:34:31;100948.00;;;33.93;72.91
20455;BME280;10386;54.314;10.022;2022-08-04T12:37:04;100910.19;;;33.72;70.76
20455;BME280;10386;54.314;10.022;2022-08-04T12:39:34;100929.91;;;33.72;72.85
20455;BME280;10386;54.314;10.022;2022-08-04T12:42:37;100906.56;;;33.93;70.06
20455;BME280;10386;54.314;10.022;2022-08-04T12:45:22;100912.56;;;33.31;72.56
20455;BME280;10386;54.314;10.022;2022-08-04T12:47:52;100927.06;;;33.11;72.45
20455;BME280;10386;54.314;10.022;2022-08-04T12:50:20;100951.63;;;32.99;75.00
20455;BME280;10386;54.314;10.022;2022-08-04T12:52:53;100964.09;;;33.31;76.02
20455;BME280;10386;54.314;10.022;2022-08-04T12:55:31;100959.44;;;33.53;76.81
20455;BME280;10386;54.314;10.022;2022-08-04T12:58:12;100954.47;;;33.44;76.45
20455;BME280;10386;54.314;10.022;2022-08-04T13:01:05;100944.78;;;33.68;75.53
20455;BME280;10386;54.314;10.022;2022-08-04T13:03:59;100944.00;;;33.89;76.34
20455;BME280;10386;54.314;10.022;2022-08-04T13:06:31;100918.81;;;33.82;74.85
20455;BME280;10386;54.314;10.022;2022-08-04T13:09:10;100950.16;;;34.40;76.35
20455;BME280;10386;54.314;10.022;2022-08-04T13:11:54;100904.16;;;34.61;73.75
20455;BME280;10386;54.314;10.022;2022-08-04T13:14:23;100908.91;;;34.55;74.29
20455;BME280;10386;54.314;10.022;2022-08-04T13:16:58;100856.25;;;34.18;72.09
20455;BME280;10386;54.314;10.022;2022-08-04T13:19:29;100938.53;;;34.36;76.49
20455;BME280;10386;54.314;10.022;2022-08-04T13:22:08;100920.91;;;34.46;75.70
20455;BME280;10386;54.314;10.022;2022-08-04T13:24:37;100913.56;;;34.45;75.24
20455;BME280;10386;54.314;10.022;2022-08-04T13:27:26;100904.50;;;34.43;74.57
20455;BME280;10386;54.314;10.022;2022-08-04T13:30:09;100882.41;;;34.35;74.27
20455;BME280;10386;54.314;10.022;2022-08-04T13:32:54;100869.78;;;34.42;72.83
20455;BME280;10386;54.314;10.022;2022-08-04T13:35:22;100884.56;;;34.71;72.95
20455;BME280;10386;54.314;10.022;2022-08-04T13:38:12;100883.44;;;34.98;72.61
20455;BME280;10386;54.314;10.022;2022-08-04T13:40:41;100888.50;;;35.18;72.95
20455;BME280;10386;54.314;10.022;2022-08-04T13:43:21;100854.06;;;35.21;71.00
20455;BME280;10386;54.314;10.022;2022-08-04T13:46:13;100896.47;;;35.88;71.29
20455;BME280;10386;54.314;10.022;2022-08-04T13:48:54;100850.31;;;35.83;69.85
20455;BME280;10386;54.314;10.022;2022-08-04T13:51:53;100873.47;;;35.75;71.52
20455;BME280;10386;54.314;10.022;2022-08-04T13:54:45;100826.34;;;35.49;69.12
20455;BME280;10386;54.314;10.022;2022-08-04T13:57:26;100820.13;;;35.16;69.30
20455;BME280;10386;54.314;10.022;2022-08-04T14:00:00;100817.16;;;35.01;69.11
20455;BME280;10386;54.314;10.022;2022-08-04T14:02:33;100797.13;;;34.76;68.10
20455;BME280;10386;54.314;10.022;2022-08-04T14:05:08;100823.44;;;34.33;70.47
20455;BME280;10386;54.314;10.022;2022-08-04T14:07:49;100887.41;;;34.49;73.08
20455;BME280;10386;54.314;10.022;2022-08-04T14:10:18;100872.34;;;34.87;71.86
20455;BME280;10386;54.314;10.022;2022-08-04T14:12:47;100911.88;;;35.45;73.55
20455;BME280;10386;54.314;10.022;2022-08-04T14:15:39;100846.50;;;35.00;71.76
20455;BME280;10386;54.314;10.022;2022-08-04T14:18:29;100833.13;;;34.64;71.48
20455;BME280;10386;54.314;10.022;2022-08-04T14:23:45;101043.66;;;32.87;97.81
20455;BME280;10386;54.314;10.022;2022-08-04T14:28:40;100984.78;;;32.01;100.00
20455;BME280;10386;54.314;10.022;2022-08-04T14:31:27;101006.81;;;31.92;100.00
20455;BME280;10386;54.314;10.022;2022-08-04T14:33:56;101010.72;;;31.50;100.00
20455;BME280;10386;54.314;10.022;2022-08-04T14:36:39;101022.44;;;31.18;100.00
20455;BME280;10386;54.314;10.022;2022-08-04T14:39:38;101023.09;;;30.84;100.00
20455;BME280;10386;54.314;10.022;2022-08-04T14:42:07;101023.00;;;31.38;100.00
20455;BME280;10386;54.314;10.022;2022-08-04T14:44:54;101011.31;;;31.12;100.00
20455;BME280;10386;54.314;10.022;2022-08-04T14:47:41;101007.53;;;31.47;100.00
20455;BME280;10386;54.314;10.022;2022-08-04T14:50:19;100997.78;;;31.09;100.00
20455;BME280;10386;54.314;10.022;2022-08-04T14:52:46;101016.78;;;30.53;100.00
20455;BME280;10386;54.314;10.022;2022-08-04T14:55:22;101021.63;;;30.82;100.00
20455;BME280;10386;54.314;10.022;2022-08-04T14:57:50;101030.72;;;31.13;100.00
20455;BME280;10386;54.314;10.022;2022-08-04T15:00:39;101016.34;;;31.21;100.00
20455;BME280;10386;54.314;10.022;2022-08-04T15:03:07;101031.72;;;31.19;100.00
20455;BME280;10386;54.314;10.022;2022-08-04T15:05:36;101012.59;;;30.62;100.00
20455;BME280;10386;54.314;10.022;2022-08-04T15:08:25;101025.34;;;30.40;100.00
20455;BME280;10386;54.314;10.022;2022-08-04T15:10:58;101042.00;;;30.35;100.00
20455;BME280;10386;54.314;10.022;2022-08-04T15:13:31;101039.56;;;30.20;100.00
20455;BME280;10386;54.314;10.022;2022-08-04T15:15:59;101034.41;;;29.93;100.00
20455;BME280;10386;54.314;10.022;2022-08-04T15:18:37;101038.06;;;29.69;100.00
20455;BME280;10386;54.314;10.022;2022-08-04T15:21:05;101028.78;;;29.69;100.00
20455;BME280;10386;54.314;10.022;2022-08-04T15:23:34;101043.31;;;29.59;100.00
20455;BME280;10386;54.314;10.022;2022-08-04T15:26:09;101032.63;;;29.43;100.00
20455;BME280;10386;54.314;10.022;2022-08-04T15:28:41;101027.38;;;29.22;100.00
20455;BME280;10386;54.314;10.022;2022-08-04T15:31:13;101035.94;;;28.96;100.00
20455;BME280;10386;54.314;10.022;2022-08-04T15:34:01;101081.28;;;29.05;100.00
20455;BME280;10386;54.314;10.022;2022-08-04T15:39:27;101083.09;;;28.86;100.00
20455;BME280;10386;54.314;10.022;2022-08-04T15:44:56;101070.50;;;28.45;100.00
20455;BME280;10386;54.314;10.022;2022-08-04T15:47:24;101076.28;;;28.43;100.00
20455;BME280;10386;54.314;10.022;2022-08-04T15:50:03;101088.56;;;28.36;100.00
20455;BME280;10386;54.314;10.022;2022-08-04T15:53:00;101091.56;;;28.22;100.00
20455;BME280;10386;54.314;10.022;2022-08-04T15:55:42;101116.06;;;28.13;100.00
20455;BME280;10386;54.314;10.022;2022-08-04T15:58:15;101114.13;;;28.07;100.00
20455;BME280;10386;54.314;10.022;2022-08-04T16:16:29;101151.16;;;27.49;100.00
20455;BME280;10386;54.314;10.022;2022-08-04T16:21:50;101174.25;;;27.24;100.00
20455;BME280;10386;54.314;10.022;2022-08-04T16:26:52;101175.94;;;26.84;100.00
20455;BME280;10386;54.314;10.022;2022-08-04T16:34:32;101218.00;;;26.62;100.00
20455;BME280;10386;54.314;10.022;2022-08-04T16:37:19;101224.38;;;26.56;100.00
20455;BME280;10386;54.314;10.022;2022-08-04T16:39:47;101221.69;;;26.42;100.00
20455;BME280;10386;54.314;10.022;2022-08-04T16:50:21;101182.72;;;25.79;100.00
20455;BME280;10386;54.314;10.022;2022-08-04T16:52:50;101183.66;;;25.86;100.00
20455;BME280;10386;54.314;10.022;2022-08-04T16:55:25;101180.44;;;25.68;100.00
20455;BME280;10386;54.314;10.022;2022-08-04T16:57:56;101181.56;;;25.73;100.00
20455;BME280;10386;54.314;10.022;2022-08-04T17:00:33;101186.00;;;25.68;100.00
20455;BME280;10386;54.314;10.022;2022-08-04T17:03:04;101209.19;;;25.75;100.00
20455;BME280;10386;54.314;10.022;2022-08-04T17:05:33;101223.38;;;25.94;100.00
20455;BME280;10386;54.314;10.022;2022-08-04T17:08:07;101234.19;;;25.89;100.00
20455;BME280;10386;54.314;10.022;2022-08-04T17:10:56;101254.69;;;25.82;100.00
20455;BME280;10386;54.314;10.022;2022-08-04T17:13:34;101248.00;;;25.62;100.00
20455;BME280;10386;54.314;10.022;2022-08-04T17:16:21;101238.34;;;25.43;100.00
20455;BME280;10386;54.314;10.022;2022-08-04T17:18:53;101253.56;;;25.62;100.00
20455;BME280;10386;54.314;10.022;2022-08-04T17:21:28;101245.63;;;25.59;100.00
20455;BME280;10386;54.314;10.022;2022-08-04T17:23:57;101234.88;;;25.56;100.00
20455;BME280;10386;54.314;10.022;2022-08-04T17:26:44;101236.75;;;25.35;100.00
20455;BME280;10386;54.314;10.022;2022-08-04T17:29:21;101229.47;;;25.19;100.00
20455;BME280;10386;54.314;10.022;2022-08-04T17:32:15;101215.19;;;25.22;100.00
20455;BME280;10386;54.314;10.022;2022-08-04T17:34:49;101196.94;;;25.34;100.00
20455;BME280;10386;54.314;10.022;2022-08-04T17:37:17;101197.00;;;25.55;100.00
20455;BME280;10386;54.314;10.022;2022-08-04T17:40:06;101191.25;;;25.42;100.00
20455;BME280;10386;54.314;10.022;2022-08-04T17:43:06;101180.19;;;25.28;100.00